MDA weather

Ingenio Incauca Airport
Miranda, Cauca Department, Colombia

Public forecast

Using degrees Celsius for public forecast. Weather courtesy of forecast.io.

METAR (pilot weather report)

Closest report is Alfonso Bonilla Aragon International Airport, 16.7 nm (31.0 km) N. Retrieved 2019/08/21 03:00 UTC (43 minutes ago):

SKCL 210300Z 35008KT 9999 FEW023 SCT120 23/18 A3000 NOSIG

TAF (pilot weather forecast)

Forecast is more than 12 hours old.

Closest forecast is Alfonso Bonilla Aragon International Airport, 16.7 nm (31.0 km) N. Retrieved 2019/08/20 00:30 UTC (1 day ago):

TAF SKCL 202230Z 2100/2124 34011KT 9999 FEW030 BKN120 BECMG 2104/2106 VRB02KT PROB40 TEMPO 2109/2112 7000 VCFG SCT020 BECMG 2114/2116 33012KT TX33/2119Z TN18/2111Z